GCC Virtual Airport Information Service

Abu Dhabi International Airport

ICAO: OMAA Country: AE
Latitude: 24.433 Longitude: 54.6511
Latest Arrival : ETD261 (VRMM-OMAA) Latest Departure : ETD301 (OMAA-OKBK)


WX CaptureLIVE
Data provided by noaa.gov | Fetched at 06:04:19

METAR : OMAA 270500Z 17004KT 6000 NSC 16/14 Q1019 NOSIG

TAF : OMAA 270500Z 2706/2812 18005KT 8000 NSC BECMG 2706/2708 32015KT BECMG 2722/2800 04005KT 3000 BR BKN006 PROB40 2801/2805 12005KT 0200 FG VV/// BECMG 2806/2808 8000 NSW NSC BECMG 2810/2812 32010KT


Runway Data for OMAA
Data provided by openaviationdata.com

Runway ID Mag Var Hdg Length Elevation Surface ILS Freq ILS Id ILS Slope
13 1 126° 13463 ft 88 ft Asphalt 108.9 IAE 3
31 1 306° 13463 ft 88 ft Asphalt 109.3 IAW 3

Abu Dhabi International Airport, AE
Use only for reference purposes



Not for navigational purposes.